ADDS METAR Data INFO
IDs: Format: Raw Decoded Include TAF

Data at: 0205 UTC 14 Dec 2017

KMAN 140155Z AUTO 34004KT 9SM CLR M04/M04 A3042 RMK A01
KMAN 140135Z AUTO 34004KT 10SM CLR M04/M04 A3041 RMK A01
KMAN 140115Z AUTO 35004KT 10SM CLR M04/M04 A3042 RMK A01
KMAN 140055Z AUTO 32004KT 10SM CLR M04/M04 A3041 RMK A01
KMAN 140035Z AUTO 33004KT 9SM CLR M04/M04 A3041 RMK A01
KMAN 140015Z AUTO 34004KT 9SM CLR M03/M03 A3041 RMK A01
KMAN 132355Z AUTO 33006KT 9SM SCT013 SCT060 M03/M03 A3041 RMK A01
KMAN 132335Z AUTO 31005KT 10SM OVC014 M03/M03 A3041 RMK A01
KMAN 132315Z AUTO 31006KT 10SM OVC014 M02/M03 A3041 RMK A01
KMAN 132255Z AUTO 32005KT 9SM OVC013 M03/M03 A3042 RMK A01
KMAN 132235Z AUTO 31006KT 10SM OVC013 M03/M03 A3041 RMK A01
KMAN 132215Z AUTO 36005KT 10SM OVC013 M03/M03 A3042 RMK A01
KMAN 132155Z AUTO 34005KT 9SM OVC012 M03/M03 A3042 RMK A01
KMAN 132135Z AUTO 31006KT 8SM OVC011 M03/M03 A3042 RMK A01
KMAN 132115Z AUTO 32004KT 9SM OVC011 M03/M03 A3042 RMK A01
KMAN 132055Z AUTO 29004KT 8SM OVC010 M03/M03 A3042 RMK A01
KMAN 132035Z AUTO 00000KT 7SM OVC009 M04/M04 A3043 RMK A01
KMAN 132015Z AUTO 26004KT 5SM BR OVC008 M04/M04 A3043 RMK A01
KMAN 131955Z AUTO 00000KT 4SM BR OVC006 M04/M04 A3044 RMK A01
KMAN 131935Z AUTO 00000KT 4SM BR OVC006 M04/M04 A3045 RMK A01
KMAN 131915Z AUTO 24003KT 5SM BR OVC006 M04/M04 A3044 RMK A01
KMAN 131855Z AUTO 00000KT 4SM BR OVC005 M04/M04 A3045 RMK A01
KMAN 131835Z AUTO 00000KT 3SM BR OVC004 M04/M04 A3045 RMK A01
KMAN 131815Z AUTO 00000KT 3SM BR OVC005 M04/M04 A3046 RMK A01
KMAN 131755Z AUTO 23004KT 4SM BR OVC006 M04/M04 A3045 RMK A01
KMAN 131735Z AUTO 00000KT 4SM BR OVC006 M04/M04 A3047 RMK A01
KMAN 131715Z AUTO 33006KT 4SM BR OVC005 M04/M04 A3049 RMK A01
KMAN 131655Z AUTO 33003KT 3SM BR OVC005 M05/M05 A3048 RMK A01
KMAN 131635Z AUTO 00000KT 4SM BR OVC005 M04/M04 A3048 RMK A01
KMAN 131615Z AUTO 35004KT 3SM BR OVC004 M05/M05 A3048 RMK A01
KMAN 131555Z AUTO 00000KT 3SM BR OVC004 M05/M05 A3048 RMK A01
KMAN 131535Z AUTO 24004KT 4SM BR OVC003 M05/M05 A3048 RMK A01
KMAN 131515Z AUTO 00000KT 3SM BR OVC003 M05/M05 A3047 RMK A01
KMAN 131455Z AUTO 00000KT 3SM BR OVC003 M05/M05 A3047 RMK A01
KMAN 131435Z AUTO 00000KT 4SM BR OVC004 M05/M05 A3047 RMK A01
KMAN 131415Z AUTO 00000KT 3SM BR OVC004 M05/M05 A3048 RMK A01
KMAN 131355Z AUTO 00000KT 4SM BR OVC004 M05/M05 A3048 RMK A01
KMAN 131335Z AUTO 00000KT 5SM BR OVC004 M05/M05 A3048 RMK A01
KMAN 131315Z AUTO 00000KT 5SM BR OVC005 M05/M05 A3048 RMK A01
KMAN 131255Z AUTO 00000KT 5SM BR OVC005 M05/M05 A3048 RMK A01
KMAN 131235Z AUTO 00000KT 5SM BR OVC005 M05/M05 A3048 RMK A01
KMAN 131215Z AUTO 00000KT 5SM BR OVC005 M05/M05 A3049 RMK A01
KMAN 131155Z AUTO 00000KT 6SM BR OVC005 M05/M05 A3049 RMK A01
KMAN 131135Z AUTO 21003KT 5SM BR OVC005 M05/M05 A3048 RMK A01
KMAN 131115Z AUTO 00000KT 5SM BR OVC005 M05/M05 A3048 RMK A01
KMAN 131055Z AUTO 00000KT 4SM BR OVC005 M05/M05 A3050 RMK A01
KMAN 131035Z AUTO 00000KT 5SM BR OVC005 M05/M05 A3051 RMK A01
KMAN 130955Z AUTO 00000KT 5SM BR OVC005 M05/M05 A3052 RMK A01
KMAN 130935Z AUTO 00000KT 5SM BR OVC005 M05/M05 A3052 RMK A01
KMAN 130915Z AUTO 00000KT 5SM BR OVC005 M05/M05 A3051 RMK A01
KMAN 130855Z AUTO 00000KT 6SM BR OVC005 M05/M05 A3051 RMK A01
KMAN 130835Z AUTO 00000KT 5SM BR OVC005 M05/M05 A3051 RMK A01
KMAN 130815Z AUTO 00000KT 5SM BR OVC005 M05/M05 A3052 RMK A01
KMAN 130755Z AUTO 00000KT 5SM BR OVC005 M05/M05 A3052 RMK A01
KMAN 130735Z AUTO 00000KT 6SM BR OVC005 M05/M05 A3052 RMK A01
KMAN 130715Z AUTO 00000KT 6SM BR OVC005 M05/M05 A3053 RMK A01
KMAN 130655Z AUTO 01004KT 5SM BR OVC005 M05/M05 A3054 RMK A01
KMAN 130635Z AUTO 33003KT 5SM BR OVC005 M05/M05 A3054 RMK A01
KMAN 130615Z AUTO 00000KT 6SM BR OVC005 M05/M05 A3054 RMK A01
KMAN 130555Z AUTO 32004KT 6SM BR OVC005 M05/M05 A3054 RMK A01
KMAN 130535Z AUTO 00000KT 5SM BR OVC005 M05/M05 A3054 RMK A01
KMAN 130515Z AUTO 27004KT 6SM BR OVC006 M05/M05 A3054 RMK A01
KMAN 130455Z AUTO 00000KT 6SM BR OVC006 M04/M04 A3055 RMK A01
KMAN 130435Z AUTO 00000KT 6SM BR OVC006 M04/M04 A3055 RMK A01
KMAN 130415Z AUTO 36005KT 6SM BR OVC006 M04/M04 A3055 RMK A01
KMAN 130355Z AUTO 00000KT 6SM BR OVC006 M04/M04 A3055 RMK A01
KMAN 130335Z AUTO 00000KT 6SM BR OVC006 M04/M04 A3056 RMK A01
KMAN 130315Z AUTO 00000KT 6SM BR OVC006 M04/M04 A3056 RMK A01
KMAN 130255Z AUTO 00000KT 6SM BR OVC006 M04/M04 A3055 RMK A01
KMAN 130235Z AUTO 00000KT 6SM BR OVC006 M04/M04 A3056 RMK A01
KMAN 130215Z AUTO 28004KT 6SM BR OVC006 M04/M04 A3056 RMK A01
KMAN 130155Z AUTO VRB03KT 7SM OVC006 M04/M04 A3056 RMK A01
KMAN 130135Z AUTO 33004KT 7SM OVC006 M04/M04 A3057 RMK A01
KMAN 130115Z AUTO 00000KT 7SM OVC007 M04/M04 A3057 RMK A01
KMAN 130055Z AUTO 35004KT 6SM BR OVC007 M04/M04 A3057 RMK A01
KMAN 130035Z AUTO 33004KT 7SM OVC007 M04/M04 A3057 RMK A01
KMAN 130015Z AUTO 00000KT 6SM BR OVC007 M04/M04 A3057 RMK A01
KMAN 122355Z AUTO 00000KT 5SM BR OVC007 M04/M04 A3058 RMK A01
KMAN 122335Z AUTO 00000KT 5SM BR OVC007 M04/M04 A3058 RMK A01
KMAN 122315Z AUTO 29005KT 5SM BR OVC007 M04/M04 A3059 RMK A01
KMAN 122255Z AUTO 00000KT 3SM BR OVC007 M04/M04 A3059 RMK A01
KMAN 122235Z AUTO 29004KT 5SM BR OVC008 M04/M04 A3059 RMK A01
KMAN 122215Z AUTO 00000KT 5SM BR OVC008 M04/M04 A3060 RMK A01
KMAN 122155Z AUTO 00000KT 5SM BR OVC007 M04/M04 A3061 RMK A01
KMAN 122135Z AUTO VRB04KT 5SM BR OVC008 M04/M04 A3062 RMK A01
KMAN 122115Z AUTO 00000KT 6SM BR OVC008 M04/M04 A3063 RMK A01
KMAN 122055Z AUTO 00000KT 5SM BR OVC007 M04/M04 A3064 RMK A01
KMAN 122035Z AUTO 00000KT 5SM BR OVC007 M04/M04 A3064 RMK A01
KMAN 122015Z AUTO 00000KT 5SM BR OVC007 M04/M04 A3065 RMK A01
KMAN 121955Z AUTO 00000KT 5SM BR OVC007 M04/M04 A3067 RMK A01
KMAN 121935Z AUTO 00000KT 5SM BR OVC006 M04/M04 A3067 RMK A01
KMAN 121915Z AUTO 22005KT 5SM BR OVC006 M04/M04 A3068 RMK A01
KMAN 121855Z AUTO 17004KT 5SM BR OVC006 M04/M04 A3068 RMK A01
KMAN 121835Z AUTO 00000KT 5SM BR OVC006 M04/M04 A3069 RMK A01
KMAN 121815Z AUTO 00000KT 5SM BR OVC006 M05/M05 A3069 RMK A01
KMAN 121755Z AUTO VRB03KT 6SM BR OVC006 M04/M04 A3070 RMK A01
KMAN 121735Z AUTO 00000KT 5SM BR OVC006 M04/M04 A3070 RMK A01
KMAN 121715Z AUTO 14004KT 5SM BR OVC006 M04/M04 A3070 RMK A01
KMAN 121655Z AUTO 19005KT 5SM BR OVC006 M04/M04 A3069 RMK A01
KMAN 121635Z AUTO 11003KT 4SM BR OVC006 M04/M04 A3070 RMK A01
KMAN 121615Z AUTO 00000KT 5SM BR OVC007 M04/M04 A3070 RMK A01
KMAN 121555Z AUTO 00000KT 4SM BR OVC007 M04/M04 A3070 RMK A01
KMAN 121535Z AUTO 00000KT 5SM BR OVC006 M04/M04 A3070 RMK A01
KMAN 121515Z AUTO 20005KT 6SM BR OVC007 M04/M04 A3069 RMK A01
KMAN 121455Z AUTO 22004KT 7SM OVC007 M04/M04 A3069 RMK A01
KMAN 121415Z AUTO 4.04166704KT 6SM BR OVC007 M04/M04 A3069 RMK A01